Terminal Aerodrome Forecast
Issued by NWS

Home | Current Version | Previous Version | Graphics & Text | Print | Product List | Glossary On
Versions: 1 2 3 4 5 6 7 8 9 10 11 12 13 14 15 16
000
FTUS43 KMPX 141131 CCA
TAFAXN
TAF COR
KAXN 141131Z 1412/1512 17012KT 6SM -SHSN OVC025
     FM141800 20012KT 1/2SM SN FG VV006
     FM142200 32013G22KT 4SM -SN BLSN OVC022
     FM150200 34018G26KT 6SM BLSN BKN050=

USA.gov is the U.S. government's official web portal to all federal, state and local government web resources and services.